sensor_id;sensor_type;location;lat;lon;timestamp;temperature;humidity
58554;DHT22;48119;53.218;6.576;2023-05-27T00:00:17;14.00;96.10
58554;DHT22;48119;53.218;6.576;2023-05-27T00:02:43;14.00;96.10
58554;DHT22;48119;53.218;6.576;2023-05-27T00:05:09;14.00;96.20
58554;DHT22;48119;53.218;6.576;2023-05-27T00:07:35;14.00;96.20
58554;DHT22;48119;53.218;6.576;2023-05-27T00:10:01;14.00;96.20
58554;DHT22;48119;53.218;6.576;2023-05-27T00:12:26;14.00;96.30
58554;DHT22;48119;53.218;6.576;2023-05-27T00:14:52;14.00;96.30
58554;DHT22;48119;53.218;6.576;2023-05-27T00:17:18;13.90;96.40
58554;DHT22;48119;53.218;6.576;2023-05-27T00:19:45;14.00;96.40
58554;DHT22;48119;53.218;6.576;2023-05-27T00:22:13;14.00;96.40
58554;DHT22;48119;53.218;6.576;2023-05-27T00:24:39;13.90;96.50
58554;DHT22;48119;53.218;6.576;2023-05-27T00:27:07;13.90;96.50
58554;DHT22;48119;53.218;6.576;2023-05-27T00:29:33;13.90;96.50
58554;DHT22;48119;53.218;6.576;2023-05-27T00:32:02;13.90;96.60
58554;DHT22;48119;53.218;6.576;2023-05-27T00:34:29;13.80;96.70
58554;DHT22;48119;53.218;6.576;2023-05-27T00:36:56;13.80;96.80
58554;DHT22;48119;53.218;6.576;2023-05-27T00:39:21;13.80;96.80
58554;DHT22;48119;53.218;6.576;2023-05-27T00:41:49;13.80;96.90
58554;DHT22;48119;53.218;6.576;2023-05-27T00:44:15;13.80;97.00
58554;DHT22;48119;53.218;6.576;2023-05-27T00:46:41;13.80;97.00
58554;DHT22;48119;53.218;6.576;2023-05-27T00:49:06;13.70;97.00
58554;DHT22;48119;53.218;6.576;2023-05-27T00:51:32;13.70;97.10
58554;DHT22;48119;53.218;6.576;2023-05-27T00:53:58;13.70;97.10
58554;DHT22;48119;53.218;6.576;2023-05-27T00:56:24;13.70;97.20
58554;DHT22;48119;53.218;6.576;2023-05-27T00:58:51;13.70;97.30
58554;DHT22;48119;53.218;6.576;2023-05-27T01:01:17;13.60;97.30
58554;DHT22;48119;53.218;6.576;2023-05-27T01:03:44;13.60;97.70
58554;DHT22;48119;53.218;6.576;2023-05-27T01:06:35;13.60;97.50
58554;DHT22;48119;53.218;6.576;2023-05-27T01:09:20;13.60;97.50
58554;DHT22;48119;53.218;6.576;2023-05-27T01:14:25;13.60;97.60
58554;DHT22;48119;53.218;6.576;2023-05-27T01:16:51;13.60;97.70
58554;DHT22;48119;53.218;6.576;2023-05-27T01:19:35;13.50;97.80
58554;DHT22;48119;53.218;6.576;2023-05-27T01:22:02;13.60;98.00
58554;DHT22;48119;53.218;6.576;2023-05-27T01:24:28;13.50;98.00
58554;DHT22;48119;53.218;6.576;2023-05-27T01:26:54;13.60;98.00
58554;DHT22;48119;53.218;6.576;2023-05-27T01:29:22;13.60;98.10
58554;DHT22;48119;53.218;6.576;2023-05-27T01:35:02;13.60;98.00
58554;DHT22;48119;53.218;6.576;2023-05-27T01:37:36;13.60;98.20
58554;DHT22;48119;53.218;6.576;2023-05-27T01:40:03;13.60;98.10
58554;DHT22;48119;53.218;6.576;2023-05-27T01:42:31;13.60;98.10
58554;DHT22;48119;53.218;6.576;2023-05-27T01:44:58;13.60;98.10
58554;DHT22;48119;53.218;6.576;2023-05-27T01:47:26;13.60;98.20
58554;DHT22;48119;53.218;6.576;2023-05-27T01:49:52;13.60;98.50
58554;DHT22;48119;53.218;6.576;2023-05-27T01:52:18;13.60;98.30
58554;DHT22;48119;53.218;6.576;2023-05-27T01:54:44;13.60;98.30
58554;DHT22;48119;53.218;6.576;2023-05-27T01:57:12;13.50;98.30
58554;DHT22;48119;53.218;6.576;2023-05-27T01:59:38;13.60;98.30
58554;DHT22;48119;53.218;6.576;2023-05-27T02:02:05;13.60;98.30
58554;DHT22;48119;53.218;6.576;2023-05-27T02:04:30;13.60;98.30
58554;DHT22;48119;53.218;6.576;2023-05-27T02:06:56;13.60;98.30
58554;DHT22;48119;53.218;6.576;2023-05-27T02:09:22;13.60;98.30
58554;DHT22;48119;53.218;6.576;2023-05-27T02:11:48;13.50;98.30
58554;DHT22;48119;53.218;6.576;2023-05-27T02:14:14;13.50;98.30
58554;DHT22;48119;53.218;6.576;2023-05-27T02:16:40;13.50;98.30
58554;DHT22;48119;53.218;6.576;2023-05-27T02:19:06;13.50;98.40
58554;DHT22;48119;53.218;6.576;2023-05-27T02:21:32;13.50;98.40
58554;DHT22;48119;53.218;6.576;2023-05-27T02:23:58;13.40;98.40
58554;DHT22;48119;53.218;6.576;2023-05-27T02:26:24;13.40;98.40
58554;DHT22;48119;53.218;6.576;2023-05-27T02:28:50;13.40;98.50
58554;DHT22;48119;53.218;6.576;2023-05-27T02:31:16;13.40;98.50
58554;DHT22;48119;53.218;6.576;2023-05-27T02:33:42;13.50;98.50
58554;DHT22;48119;53.218;6.576;2023-05-27T02:36:08;13.50;98.50
58554;DHT22;48119;53.218;6.576;2023-05-27T02:38:33;13.40;98.50
58554;DHT22;48119;53.218;6.576;2023-05-27T02:41:00;13.40;98.50
58554;DHT22;48119;53.218;6.576;2023-05-27T02:43:26;13.40;98.60
58554;DHT22;48119;53.218;6.576;2023-05-27T02:45:51;13.40;98.70
58554;DHT22;48119;53.218;6.576;2023-05-27T02:48:17;13.30;98.70
58554;DHT22;48119;53.218;6.576;2023-05-27T02:50:43;13.30;98.80
58554;DHT22;48119;53.218;6.576;2023-05-27T02:53:09;13.30;98.80
58554;DHT22;48119;53.218;6.576;2023-05-27T02:55:35;13.30;98.80
58554;DHT22;48119;53.218;6.576;2023-05-27T02:58:01;13.40;98.80
58554;DHT22;48119;53.218;6.576;2023-05-27T03:00:28;13.40;98.80
58554;DHT22;48119;53.218;6.576;2023-05-27T03:02:54;13.50;98.70
58554;DHT22;48119;53.218;6.576;2023-05-27T03:05:20;13.50;98.70
58554;DHT22;48119;53.218;6.576;2023-05-27T03:07:45;13.50;98.70
58554;DHT22;48119;53.218;6.576;2023-05-27T03:10:11;13.60;99.00
58554;DHT22;48119;53.218;6.576;2023-05-27T03:12:37;13.50;98.70
58554;DHT22;48119;53.218;6.576;2023-05-27T03:15:03;13.60;98.80
58554;DHT22;48119;53.218;6.576;2023-05-27T03:17:29;13.60;98.80
58554;DHT22;48119;53.218;6.576;2023-05-27T03:19:55;13.60;98.70
58554;DHT22;48119;53.218;6.576;2023-05-27T03:22:21;13.60;98.80
58554;DHT22;48119;53.218;6.576;2023-05-27T03:24:46;13.60;98.80
58554;DHT22;48119;53.218;6.576;2023-05-27T03:27:12;13.60;98.80
58554;DHT22;48119;53.218;6.576;2023-05-27T03:29:39;13.60;98.80
58554;DHT22;48119;53.218;6.576;2023-05-27T03:32:06;13.50;98.80
58554;DHT22;48119;53.218;6.576;2023-05-27T03:34:32;13.50;98.80
58554;DHT22;48119;53.218;6.576;2023-05-27T03:36:58;13.50;98.80
58554;DHT22;48119;53.218;6.576;2023-05-27T03:39:23;13.50;98.90
58554;DHT22;48119;53.218;6.576;2023-05-27T03:41:49;13.60;98.90
58554;DHT22;48119;53.218;6.576;2023-05-27T03:44:15;13.60;98.90
58554;DHT22;48119;53.218;6.576;2023-05-27T03:46:41;13.60;98.90
58554;DHT22;48119;53.218;6.576;2023-05-27T03:49:06;13.60;98.80
58554;DHT22;48119;53.218;6.576;2023-05-27T03:51:32;13.60;98.90
58554;DHT22;48119;53.218;6.576;2023-05-27T03:53:58;13.60;98.90
58554;DHT22;48119;53.218;6.576;2023-05-27T03:56:24;13.60;98.80
58554;DHT22;48119;53.218;6.576;2023-05-27T03:58:50;13.60;98.80
58554;DHT22;48119;53.218;6.576;2023-05-27T04:01:16;13.60;98.80
58554;DHT22;48119;53.218;6.576;2023-05-27T04:03:46;13.60;98.80
58554;DHT22;48119;53.218;6.576;2023-05-27T04:06:11;13.60;98.80
58554;DHT22;48119;53.218;6.576;2023-05-27T04:08:37;13.60;98.80
58554;DHT22;48119;53.218;6.576;2023-05-27T04:11:04;13.50;98.80
58554;DHT22;48119;53.218;6.576;2023-05-27T04:13:30;13.50;98.90
58554;DHT22;48119;53.218;6.576;2023-05-27T04:15:56;13.50;98.90
58554;DHT22;48119;53.218;6.576;2023-05-27T04:18:23;13.50;98.90
58554;DHT22;48119;53.218;6.576;2023-05-27T04:20:49;13.50;99.00
58554;DHT22;48119;53.218;6.576;2023-05-27T04:23:16;13.50;99.10
58554;DHT22;48119;53.218;6.576;2023-05-27T04:25:42;13.50;99.10
58554;DHT22;48119;53.218;6.576;2023-05-27T04:28:08;13.50;99.20
58554;DHT22;48119;53.218;6.576;2023-05-27T04:30:34;13.50;99.20
58554;DHT22;48119;53.218;6.576;2023-05-27T04:33:03;13.50;99.20
58554;DHT22;48119;53.218;6.576;2023-05-27T04:35:29;13.60;99.20
58554;DHT22;48119;53.218;6.576;2023-05-27T04:37:58;13.50;99.20
58554;DHT22;48119;53.218;6.576;2023-05-27T04:40:27;13.50;99.20
58554;DHT22;48119;53.218;6.576;2023-05-27T04:42:57;13.50;99.20
58554;DHT22;48119;53.218;6.576;2023-05-27T04:45:23;13.60;99.20
58554;DHT22;48119;53.218;6.576;2023-05-27T04:47:49;13.60;99.20
58554;DHT22;48119;53.218;6.576;2023-05-27T04:50:14;13.60;99.20
58554;DHT22;48119;53.218;6.576;2023-05-27T04:52:40;13.60;99.20
58554;DHT22;48119;53.218;6.576;2023-05-27T04:55:09;13.60;99.30
58554;DHT22;48119;53.218;6.576;2023-05-27T04:57:36;13.60;99.40
58554;DHT22;48119;53.218;6.576;2023-05-27T05:00:04;13.60;99.40
58554;DHT22;48119;53.218;6.576;2023-05-27T05:02:33;13.60;99.40
58554;DHT22;48119;53.218;6.576;2023-05-27T05:05:07;13.60;99.40
58554;DHT22;48119;53.218;6.576;2023-05-27T05:07:40;13.60;99.40
58554;DHT22;48119;53.218;6.576;2023-05-27T05:10:10;13.60;99.40
58554;DHT22;48119;53.218;6.576;2023-05-27T05:12:37;13.50;99.40
58554;DHT22;48119;53.218;6.576;2023-05-27T05:15:06;13.60;99.40
58554;DHT22;48119;53.218;6.576;2023-05-27T05:17:32;13.60;99.40
58554;DHT22;48119;53.218;6.576;2023-05-27T05:19:58;13.60;99.40
58554;DHT22;48119;53.218;6.576;2023-05-27T05:22:24;13.60;99.50
58554;DHT22;48119;53.218;6.576;2023-05-27T05:24:51;13.60;99.50
58554;DHT22;48119;53.218;6.576;2023-05-27T05:27:17;13.60;99.50
58554;DHT22;48119;53.218;6.576;2023-05-27T05:29:43;13.60;99.50
58554;DHT22;48119;53.218;6.576;2023-05-27T05:32:10;13.70;99.60
58554;DHT22;48119;53.218;6.576;2023-05-27T05:34:39;13.70;99.60
58554;DHT22;48119;53.218;6.576;2023-05-27T05:37:05;13.70;99.70
58554;DHT22;48119;53.218;6.576;2023-05-27T05:39:32;13.70;99.70
58554;DHT22;48119;53.218;6.576;2023-05-27T05:41:58;13.70;99.70
58554;DHT22;48119;53.218;6.576;2023-05-27T05:44:25;13.70;99.80
58554;DHT22;48119;53.218;6.576;2023-05-27T05:46:51;13.70;99.80
58554;DHT22;48119;53.218;6.576;2023-05-27T05:49:18;13.70;99.90
58554;DHT22;48119;53.218;6.576;2023-05-27T05:51:44;13.70;99.90
58554;DHT22;48119;53.218;6.576;2023-05-27T05:54:10;13.70;99.90
58554;DHT22;48119;53.218;6.576;2023-05-27T05:56:35;13.80;99.90
58554;DHT22;48119;53.218;6.576;2023-05-27T05:59:01;13.80;99.90
58554;DHT22;48119;53.218;6.576;2023-05-27T06:01:27;13.80;99.90
58554;DHT22;48119;53.218;6.576;2023-05-27T06:03:56;13.80;99.90
58554;DHT22;48119;53.218;6.576;2023-05-27T06:06:32;13.90;99.90
58554;DHT22;48119;53.218;6.576;2023-05-27T06:08:58;13.90;99.90
58554;DHT22;48119;53.218;6.576;2023-05-27T06:11:24;13.90;99.90
58554;DHT22;48119;53.218;6.576;2023-05-27T06:13:51;14.00;99.90
58554;DHT22;48119;53.218;6.576;2023-05-27T06:16:17;14.00;99.90
58554;DHT22;48119;53.218;6.576;2023-05-27T06:18:43;14.00;99.80
58554;DHT22;48119;53.218;6.576;2023-05-27T06:21:11;14.00;99.80
58554;DHT22;48119;53.218;6.576;2023-05-27T06:23:37;14.00;99.90
58554;DHT22;48119;53.218;6.576;2023-05-27T06:26:03;14.00;99.90
58554;DHT22;48119;53.218;6.576;2023-05-27T06:28:29;14.10;99.90
58554;DHT22;48119;53.218;6.576;2023-05-27T06:30:55;14.10;99.90
58554;DHT22;48119;53.218;6.576;2023-05-27T06:33:24;14.10;99.90
58554;DHT22;48119;53.218;6.576;2023-05-27T06:35:49;14.20;99.90
58554;DHT22;48119;53.218;6.576;2023-05-27T06:38:15;14.30;99.80
58554;DHT22;48119;53.218;6.576;2023-05-27T06:40:41;14.30;99.80
58554;DHT22;48119;53.218;6.576;2023-05-27T06:43:07;14.30;99.80
58554;DHT22;48119;53.218;6.576;2023-05-27T06:45:32;14.30;99.60
58554;DHT22;48119;53.218;6.576;2023-05-27T06:47:58;14.30;99.50
58554;DHT22;48119;53.218;6.576;2023-05-27T06:50:24;14.40;99.50
58554;DHT22;48119;53.218;6.576;2023-05-27T06:52:50;14.40;99.40
58554;DHT22;48119;53.218;6.576;2023-05-27T06:55:18;14.40;99.40
58554;DHT22;48119;53.218;6.576;2023-05-27T06:57:43;14.50;99.50
58554;DHT22;48119;53.218;6.576;2023-05-27T07:00:10;14.50;99.40
58554;DHT22;48119;53.218;6.576;2023-05-27T07:02:36;14.50;99.40
58554;DHT22;48119;53.218;6.576;2023-05-27T07:05:02;14.50;99.40
58554;DHT22;48119;53.218;6.576;2023-05-27T07:07:27;14.60;99.30
58554;DHT22;48119;53.218;6.576;2023-05-27T07:09:53;14.60;99.20
58554;DHT22;48119;53.218;6.576;2023-05-27T07:12:19;14.60;99.10
58554;DHT22;48119;53.218;6.576;2023-05-27T07:14:45;14.60;99.20
58554;DHT22;48119;53.218;6.576;2023-05-27T07:17:11;14.60;99.20
58554;DHT22;48119;53.218;6.576;2023-05-27T07:19:37;14.60;99.20
58554;DHT22;48119;53.218;6.576;2023-05-27T07:22:03;14.60;99.20
58554;DHT22;48119;53.218;6.576;2023-05-27T07:24:29;14.60;99.20
58554;DHT22;48119;53.218;6.576;2023-05-27T07:26:55;14.60;99.10
58554;DHT22;48119;53.218;6.576;2023-05-27T07:29:21;14.70;99.20
58554;DHT22;48119;53.218;6.576;2023-05-27T07:31:47;14.70;99.20
58554;DHT22;48119;53.218;6.576;2023-05-27T07:34:13;14.80;99.10
58554;DHT22;48119;53.218;6.576;2023-05-27T07:36:39;14.80;99.00
58554;DHT22;48119;53.218;6.576;2023-05-27T07:39:04;14.80;98.80
58554;DHT22;48119;53.218;6.576;2023-05-27T07:41:30;14.80;98.70
58554;DHT22;48119;53.218;6.576;2023-05-27T07:43:56;14.80;98.70
58554;DHT22;48119;53.218;6.576;2023-05-27T07:46:25;14.70;98.70
58554;DHT22;48119;53.218;6.576;2023-05-27T07:48:54;14.80;98.80
58554;DHT22;48119;53.218;6.576;2023-05-27T07:51:20;14.90;98.80
58554;DHT22;48119;53.218;6.576;2023-05-27T07:53:47;14.90;98.70
58554;DHT22;48119;53.218;6.576;2023-05-27T07:56:13;14.90;98.50
58554;DHT22;48119;53.218;6.576;2023-05-27T07:58:39;14.90;98.50
58554;DHT22;48119;53.218;6.576;2023-05-27T08:01:07;15.00;98.30
58554;DHT22;48119;53.218;6.576;2023-05-27T08:03:38;15.00;98.20
58554;DHT22;48119;53.218;6.576;2023-05-27T08:06:04;15.00;98.30
58554;DHT22;48119;53.218;6.576;2023-05-27T08:08:33;15.10;98.30
58554;DHT22;48119;53.218;6.576;2023-05-27T08:10:59;15.10;98.20
58554;DHT22;48119;53.218;6.576;2023-05-27T08:13:25;15.20;98.20
58554;DHT22;48119;53.218;6.576;2023-05-27T08:15:51;15.20;98.50
58554;DHT22;48119;53.218;6.576;2023-05-27T08:18:17;15.20;98.20
58554;DHT22;48119;53.218;6.576;2023-05-27T08:20:42;15.20;98.00
58554;DHT22;48119;53.218;6.576;2023-05-27T08:23:08;15.20;97.90
58554;DHT22;48119;53.218;6.576;2023-05-27T08:25:34;15.20;97.90
58554;DHT22;48119;53.218;6.576;2023-05-27T08:28:00;15.30;98.00
58554;DHT22;48119;53.218;6.576;2023-05-27T08:30:29;15.30;98.00
58554;DHT22;48119;53.218;6.576;2023-05-27T08:32:56;15.30;98.10
58554;DHT22;48119;53.218;6.576;2023-05-27T08:35:22;15.30;98.10
58554;DHT22;48119;53.218;6.576;2023-05-27T08:37:48;15.40;98.10
58554;DHT22;48119;53.218;6.576;2023-05-27T08:40:16;15.50;98.00
58554;DHT22;48119;53.218;6.576;2023-05-27T08:42:42;15.50;97.80
58554;DHT22;48119;53.218;6.576;2023-05-27T08:45:11;15.50;97.80
58554;DHT22;48119;53.218;6.576;2023-05-27T08:47:41;15.60;97.90
58554;DHT22;48119;53.218;6.576;2023-05-27T08:50:09;15.60;97.90
58554;DHT22;48119;53.218;6.576;2023-05-27T08:52:42;15.70;97.90
58554;DHT22;48119;53.218;6.576;2023-05-27T08:55:12;15.60;97.80
58554;DHT22;48119;53.218;6.576;2023-05-27T08:57:46;15.60;97.80
58554;DHT22;48119;53.218;6.576;2023-05-27T09:00:17;15.60;97.90
58554;DHT22;48119;53.218;6.576;2023-05-27T09:02:44;15.70;97.80
58554;DHT22;48119;53.218;6.576;2023-05-27T09:05:16;15.70;97.60
58554;DHT22;48119;53.218;6.576;2023-05-27T09:07:57;15.70;97.50
58554;DHT22;48119;53.218;6.576;2023-05-27T09:10:23;15.70;97.40
58554;DHT22;48119;53.218;6.576;2023-05-27T09:12:50;15.70;97.50
58554;DHT22;48119;53.218;6.576;2023-05-27T09:15:16;15.80;97.40
58554;DHT22;48119;53.218;6.576;2023-05-27T09:17:43;15.90;97.40
58554;DHT22;48119;53.218;6.576;2023-05-27T09:20:10;15.90;97.40
58554;DHT22;48119;53.218;6.576;2023-05-27T09:22:39;16.00;97.40
58554;DHT22;48119;53.218;6.576;2023-05-27T09:25:08;16.00;97.40
58554;DHT22;48119;53.218;6.576;2023-05-27T09:27:34;16.10;97.50
58554;DHT22;48119;53.218;6.576;2023-05-27T09:30:09;16.10;97.40
58554;DHT22;48119;53.218;6.576;2023-05-27T09:32:35;16.20;97.40
58554;DHT22;48119;53.218;6.576;2023-05-27T09:35:02;16.20;97.40
58554;DHT22;48119;53.218;6.576;2023-05-27T09:37:31;16.30;97.10
58554;DHT22;48119;53.218;6.576;2023-05-27T09:40:08;16.30;97.00
58554;DHT22;48119;53.218;6.576;2023-05-27T09:45:24;16.40;97.00
58554;DHT22;48119;53.218;6.576;2023-05-27T09:47:52;16.40;97.00
58554;DHT22;48119;53.218;6.576;2023-05-27T09:50:19;16.50;97.10
58554;DHT22;48119;53.218;6.576;2023-05-27T09:52:49;16.50;97.10
58554;DHT22;48119;53.218;6.576;2023-05-27T09:55:16;16.50;97.00
58554;DHT22;48119;53.218;6.576;2023-05-27T09:57:44;16.60;97.00
58554;DHT22;48119;53.218;6.576;2023-05-27T10:00:11;16.60;97.30
58554;DHT22;48119;53.218;6.576;2023-05-27T10:02:39;16.60;97.00
58554;DHT22;48119;53.218;6.576;2023-05-27T10:05:07;16.70;96.80
58554;DHT22;48119;53.218;6.576;2023-05-27T10:07:38;16.70;96.60
58554;DHT22;48119;53.218;6.576;2023-05-27T10:10:12;16.80;96.70
58554;DHT22;48119;53.218;6.576;2023-05-27T10:12:39;16.80;96.80
58554;DHT22;48119;53.218;6.576;2023-05-27T10:15:06;16.90;96.90
58554;DHT22;48119;53.218;6.576;2023-05-27T10:17:47;16.90;96.90
58554;DHT22;48119;53.218;6.576;2023-05-27T10:20:31;16.90;96.80
58554;DHT22;48119;53.218;6.576;2023-05-27T10:23:17;17.00;96.20
58554;DHT22;48119;53.218;6.576;2023-05-27T10:25:52;17.00;96.40
58554;DHT22;48119;53.218;6.576;2023-05-27T10:28:37;17.10;96.10
58554;DHT22;48119;53.218;6.576;2023-05-27T10:31:10;17.10;96.20
58554;DHT22;48119;53.218;6.576;2023-05-27T10:33:48;17.20;96.10
58554;DHT22;48119;53.218;6.576;2023-05-27T10:36:27;17.20;96.00
58554;DHT22;48119;53.218;6.576;2023-05-27T10:39:02;17.30;96.00
58554;DHT22;48119;53.218;6.576;2023-05-27T10:41:37;17.30;95.90
58554;DHT22;48119;53.218;6.576;2023-05-27T10:44:04;17.30;95.90
58554;DHT22;48119;53.218;6.576;2023-05-27T10:46:38;17.30;95.80
58554;DHT22;48119;53.218;6.576;2023-05-27T10:49:22;17.30;95.50
58554;DHT22;48119;53.218;6.576;2023-05-27T10:51:48;17.30;95.50
58554;DHT22;48119;53.218;6.576;2023-05-27T10:54:24;17.40;95.50
58554;DHT22;48119;53.218;6.576;2023-05-27T10:56:51;17.40;95.30
58554;DHT22;48119;53.218;6.576;2023-05-27T10:59:22;17.40;95.30
58554;DHT22;48119;53.218;6.576;2023-05-27T11:01:53;17.50;95.20
58554;DHT22;48119;53.218;6.576;2023-05-27T11:04:19;17.50;95.10
58554;DHT22;48119;53.218;6.576;2023-05-27T11:07:00;17.60;95.00
58554;DHT22;48119;53.218;6.576;2023-05-27T11:09:26;17.60;95.00
58554;DHT22;48119;53.218;6.576;2023-05-27T11:11:53;17.70;95.10
58554;DHT22;48119;53.218;6.576;2023-05-27T11:14:22;17.70;95.20
58554;DHT22;48119;53.218;6.576;2023-05-27T11:16:48;17.80;95.00
58554;DHT22;48119;53.218;6.576;2023-05-27T11:19:23;17.80;94.70
58554;DHT22;48119;53.218;6.576;2023-05-27T11:21:49;17.80;94.70
58554;DHT22;48119;53.218;6.576;2023-05-27T11:24:18;17.80;94.50
58554;DHT22;48119;53.218;6.576;2023-05-27T11:26:46;17.80;94.40
58554;DHT22;48119;53.218;6.576;2023-05-27T11:29:13;17.80;94.40
58554;DHT22;48119;53.218;6.576;2023-05-27T11:31:39;17.80;94.40
58554;DHT22;48119;53.218;6.576;2023-05-27T11:34:16;17.90;94.40
58554;DHT22;48119;53.218;6.576;2023-05-27T11:36:45;17.90;94.40
58554;DHT22;48119;53.218;6.576;2023-05-27T11:39:12;17.90;94.70
58554;DHT22;48119;53.218;6.576;2023-05-27T11:41:52;18.00;94.60
58554;DHT22;48119;53.218;6.576;2023-05-27T11:44:19;18.00;94.40
58554;DHT22;48119;53.218;6.576;2023-05-27T11:46:46;18.10;94.30
58554;DHT22;48119;53.218;6.576;2023-05-27T11:49:14;18.10;94.30
58554;DHT22;48119;53.218;6.576;2023-05-27T11:51:47;18.20;94.30
58554;DHT22;48119;53.218;6.576;2023-05-27T11:54:19;18.20;94.40
58554;DHT22;48119;53.218;6.576;2023-05-27T11:56:47;18.20;93.70
58554;DHT22;48119;53.218;6.576;2023-05-27T11:59:13;18.20;93.80
58554;DHT22;48119;53.218;6.576;2023-05-27T12:01:40;18.20;94.00
58554;DHT22;48119;53.218;6.576;2023-05-27T12:04:06;18.20;94.10
58554;DHT22;48119;53.218;6.576;2023-05-27T12:06:32;18.30;94.30
58554;DHT22;48119;53.218;6.576;2023-05-27T12:08:58;18.30;94.40
58554;DHT22;48119;53.218;6.576;2023-05-27T12:11:24;18.40;94.10
58554;DHT22;48119;53.218;6.576;2023-05-27T12:13:52;18.40;93.60
58554;DHT22;48119;53.218;6.576;2023-05-27T12:16:18;18.40;93.20
58554;DHT22;48119;53.218;6.576;2023-05-27T12:18:44;18.40;93.20
58554;DHT22;48119;53.218;6.576;2023-05-27T12:21:11;18.40;93.50
58554;DHT22;48119;53.218;6.576;2023-05-27T12:23:37;18.40;93.80
58554;DHT22;48119;53.218;6.576;2023-05-27T12:26:03;18.40;93.70
58554;DHT22;48119;53.218;6.576;2023-05-27T12:28:28;18.40;93.70
58554;DHT22;48119;53.218;6.576;2023-05-27T12:30:55;18.40;93.60
58554;DHT22;48119;53.218;6.576;2023-05-27T12:33:21;18.50;93.50
58554;DHT22;48119;53.218;6.576;2023-05-27T12:35:47;18.50;93.40
58554;DHT22;48119;53.218;6.576;2023-05-27T12:38:12;18.50;93.30
58554;DHT22;48119;53.218;6.576;2023-05-27T12:40:38;18.50;93.40
58554;DHT22;48119;53.218;6.576;2023-05-27T12:43:04;18.60;93.30
58554;DHT22;48119;53.218;6.576;2023-05-27T12:45:30;18.60;93.10
58554;DHT22;48119;53.218;6.576;2023-05-27T12:47:57;18.60;92.90
58554;DHT22;48119;53.218;6.576;2023-05-27T12:50:24;18.60;92.90
58554;DHT22;48119;53.218;6.576;2023-05-27T12:52:53;18.60;93.00
58554;DHT22;48119;53.218;6.576;2023-05-27T12:55:22;18.60;93.10
58554;DHT22;48119;53.218;6.576;2023-05-27T12:57:50;18.60;93.20
58554;DHT22;48119;53.218;6.576;2023-05-27T13:00:17;18.70;93.10
58554;DHT22;48119;53.218;6.576;2023-05-27T13:02:44;18.70;93.00
58554;DHT22;48119;53.218;6.576;2023-05-27T13:05:13;18.60;92.90
58554;DHT22;48119;53.218;6.576;2023-05-27T13:07:39;18.70;92.80
58554;DHT22;48119;53.218;6.576;2023-05-27T13:10:06;18.70;93.00
58554;DHT22;48119;53.218;6.576;2023-05-27T13:12:34;18.70;93.10
58554;DHT22;48119;53.218;6.576;2023-05-27T13:15:01;18.70;93.10
58554;DHT22;48119;53.218;6.576;2023-05-27T13:17:29;18.70;93.30
58554;DHT22;48119;53.218;6.576;2023-05-27T13:19:55;18.80;93.50
58554;DHT22;48119;53.218;6.576;2023-05-27T13:22:21;18.80;93.50
58554;DHT22;48119;53.218;6.576;2023-05-27T13:24:53;18.90;93.70
58554;DHT22;48119;53.218;6.576;2023-05-27T13:27:19;18.90;93.70
58554;DHT22;48119;53.218;6.576;2023-05-27T13:29:45;18.90;93.80
58554;DHT22;48119;53.218;6.576;2023-05-27T13:32:11;18.90;94.00
58554;DHT22;48119;53.218;6.576;2023-05-27T13:34:37;18.90;93.70
58554;DHT22;48119;53.218;6.576;2023-05-27T13:37:02;18.90;93.40
58554;DHT22;48119;53.218;6.576;2023-05-27T13:39:29;18.90;93.50
58554;DHT22;48119;53.218;6.576;2023-05-27T13:41:55;18.90;93.40
58554;DHT22;48119;53.218;6.576;2023-05-27T13:44:24;18.90;93.50
58554;DHT22;48119;53.218;6.576;2023-05-27T13:46:50;18.90;93.50
58554;DHT22;48119;53.218;6.576;2023-05-27T13:49:16;18.90;93.60
58554;DHT22;48119;53.218;6.576;2023-05-27T13:51:45;19.00;93.70
58554;DHT22;48119;53.218;6.576;2023-05-27T13:54:12;18.90;93.60
58554;DHT22;48119;53.218;6.576;2023-05-27T13:56:38;19.00;93.70
58554;DHT22;48119;53.218;6.576;2023-05-27T13:59:06;19.00;94.00
58554;DHT22;48119;53.218;6.576;2023-05-27T14:01:35;19.00;93.80
58554;DHT22;48119;53.218;6.576;2023-05-27T14:04:01;19.00;93.90
58554;DHT22;48119;53.218;6.576;2023-05-27T14:06:27;19.00;93.90
58554;DHT22;48119;53.218;6.576;2023-05-27T14:08:54;19.00;93.90
58554;DHT22;48119;53.218;6.576;2023-05-27T14:11:20;19.00;94.00
58554;DHT22;48119;53.218;6.576;2023-05-27T14:13:50;19.00;94.00
58554;DHT22;48119;53.218;6.576;2023-05-27T14:16:18;19.10;94.00
58554;DHT22;48119;53.218;6.576;2023-05-27T14:18:44;19.10;93.90
58554;DHT22;48119;53.218;6.576;2023-05-27T14:21:10;19.10;93.90
58554;DHT22;48119;53.218;6.576;2023-05-27T14:23:35;19.10;93.90
58554;DHT22;48119;53.218;6.576;2023-05-27T14:26:01;19.10;93.90
58554;DHT22;48119;53.218;6.576;2023-05-27T14:28:27;19.20;93.80
58554;DHT22;48119;53.218;6.576;2023-05-27T14:30:53;19.10;94.00
58554;DHT22;48119;53.218;6.576;2023-05-27T14:33:19;19.20;94.10
58554;DHT22;48119;53.218;6.576;2023-05-27T14:35:45;19.20;94.30
58554;DHT22;48119;53.218;6.576;2023-05-27T14:38:12;19.10;94.60
58554;DHT22;48119;53.218;6.576;2023-05-27T14:40:38;19.10;94.90
58554;DHT22;48119;53.218;6.576;2023-05-27T14:43:05;19.20;95.10
58554;DHT22;48119;53.218;6.576;2023-05-27T14:45:32;19.10;95.20
58554;DHT22;48119;53.218;6.576;2023-05-27T14:47:58;19.10;95.20
58554;DHT22;48119;53.218;6.576;2023-05-27T14:50:24;19.10;95.10
58554;DHT22;48119;53.218;6.576;2023-05-27T14:52:51;19.10;95.20
58554;DHT22;48119;53.218;6.576;2023-05-27T14:55:18;19.10;95.20
58554;DHT22;48119;53.218;6.576;2023-05-27T14:57:44;19.10;95.30
58554;DHT22;48119;53.218;6.576;2023-05-27T15:00:10;19.10;95.30
58554;DHT22;48119;53.218;6.576;2023-05-27T15:02:37;19.10;95.40
58554;DHT22;48119;53.218;6.576;2023-05-27T15:05:03;19.10;95.40
58554;DHT22;48119;53.218;6.576;2023-05-27T15:07:33;19.10;95.40
58554;DHT22;48119;53.218;6.576;2023-05-27T15:09:59;19.20;95.40
58554;DHT22;48119;53.218;6.576;2023-05-27T15:12:37;19.20;95.40
58554;DHT22;48119;53.218;6.576;2023-05-27T15:15:06;19.10;95.40
58554;DHT22;48119;53.218;6.576;2023-05-27T15:17:32;19.20;95.40
58554;DHT22;48119;53.218;6.576;2023-05-27T15:20:04;19.20;95.50
58554;DHT22;48119;53.218;6.576;2023-05-27T15:22:33;19.10;95.60
58554;DHT22;48119;53.218;6.576;2023-05-27T15:25:00;19.20;95.70
58554;DHT22;48119;53.218;6.576;2023-05-27T15:27:26;19.10;95.70
58554;DHT22;48119;53.218;6.576;2023-05-27T15:29:52;19.20;95.90
58554;DHT22;48119;53.218;6.576;2023-05-27T15:32:17;19.10;95.70
58554;DHT22;48119;53.218;6.576;2023-05-27T15:34:43;19.10;95.60
58554;DHT22;48119;53.218;6.576;2023-05-27T15:37:09;19.00;95.70
58554;DHT22;48119;53.218;6.576;2023-05-27T15:39:36;19.00;95.80